sensor_id;sensor_type;location;lat;lon;timestamp;P1;durP1;ratioP1;P2;durP2;ratioP2
8407;SDS011;4241;48.452;9.216;2022-10-16T00:00:31;471.03;;;184.90;;
8407;SDS011;4241;48.452;9.216;2022-10-16T00:02:58;470.63;;;184.17;;
8407;SDS011;4241;48.452;9.216;2022-10-16T00:05:25;480.77;;;194.30;;
8407;SDS011;4241;48.452;9.216;2022-10-16T00:07:52;467.93;;;180.20;;
8407;SDS011;4241;48.452;9.216;2022-10-16T00:10:19;469.93;;;184.23;;
8407;SDS011;4241;48.452;9.216;2022-10-16T00:12:46;469.37;;;182.20;;
8407;SDS011;4241;48.452;9.216;2022-10-16T00:15:14;471.17;;;184.67;;
8407;SDS011;4241;48.452;9.216;2022-10-16T00:17:41;474.83;;;188.27;;
8407;SDS011;4241;48.452;9.216;2022-10-16T00:20:08;467.33;;;179.70;;
8407;SDS011;4241;48.452;9.216;2022-10-16T00:22:35;471.77;;;184.77;;
8407;SDS011;4241;48.452;9.216;2022-10-16T00:25:02;469.53;;;182.17;;
8407;SDS011;4241;48.452;9.216;2022-10-16T00:27:29;469.30;;;181.67;;
8407;SDS011;4241;48.452;9.216;2022-10-16T00:29:56;471.83;;;185.03;;
8407;SDS011;4241;48.452;9.216;2022-10-16T00:32:24;470.63;;;182.53;;
8407;SDS011;4241;48.452;9.216;2022-10-16T00:34:51;467.23;;;178.90;;
8407;SDS011;4241;48.452;9.216;2022-10-16T00:37:19;468.47;;;179.50;;
8407;SDS011;4241;48.452;9.216;2022-10-16T00:39:46;466.80;;;177.23;;
8407;SDS011;4241;48.452;9.216;2022-10-16T00:42:13;471.63;;;182.30;;
8407;SDS011;4241;48.452;9.216;2022-10-16T00:44:42;466.97;;;177.67;;
8407;SDS011;4241;48.452;9.216;2022-10-16T00:47:12;466.93;;;177.40;;
8407;SDS011;4241;48.452;9.216;2022-10-16T00:49:46;467.60;;;178.30;;
8407;SDS011;4241;48.452;9.216;2022-10-16T00:52:15;469.87;;;180.27;;
8407;SDS011;4241;48.452;9.216;2022-10-16T00:54:43;467.47;;;178.10;;
8407;SDS011;4241;48.452;9.216;2022-10-16T00:57:12;466.87;;;176.70;;
8407;SDS011;4241;48.452;9.216;2022-10-16T00:59:42;466.83;;;176.40;;
8407;SDS011;4241;48.452;9.216;2022-10-16T01:02:10;468.30;;;178.40;;
8407;SDS011;4241;48.452;9.216;2022-10-16T01:04:39;466.30;;;174.60;;
8407;SDS011;4241;48.452;9.216;2022-10-16T01:07:11;468.73;;;177.90;;
8407;SDS011;4241;48.452;9.216;2022-10-16T01:09:51;465.50;;;173.70;;
8407;SDS011;4241;48.452;9.216;2022-10-16T01:12:30;467.97;;;175.53;;
8407;SDS011;4241;48.452;9.216;2022-10-16T01:15:04;465.73;;;173.07;;
8407;SDS011;4241;48.452;9.216;2022-10-16T01:17:38;464.70;;;170.47;;
8407;SDS011;4241;48.452;9.216;2022-10-16T01:20:11;466.20;;;173.97;;
8407;SDS011;4241;48.452;9.216;2022-10-16T01:22:49;466.03;;;173.70;;
8407;SDS011;4241;48.452;9.216;2022-10-16T01:25:32;466.87;;;174.87;;
8407;SDS011;4241;48.452;9.216;2022-10-16T01:28:17;465.33;;;173.60;;
8407;SDS011;4241;48.452;9.216;2022-10-16T01:30:47;465.53;;;173.63;;
8407;SDS011;4241;48.452;9.216;2022-10-16T01:33:21;465.47;;;172.57;;
8407;SDS011;4241;48.452;9.216;2022-10-16T01:35:52;464.27;;;171.10;;
8407;SDS011;4241;48.452;9.216;2022-10-16T01:38:21;464.47;;;171.43;;
8407;SDS011;4241;48.452;9.216;2022-10-16T01:40:52;468.70;;;177.10;;
8407;SDS011;4241;48.452;9.216;2022-10-16T01:43:26;463.00;;;170.30;;
8407;SDS011;4241;48.452;9.216;2022-10-16T01:45:59;466.33;;;174.47;;
8407;SDS011;4241;48.452;9.216;2022-10-16T01:48:27;464.07;;;173.10;;
8407;SDS011;4241;48.452;9.216;2022-10-16T01:50:57;466.17;;;174.50;;
8407;SDS011;4241;48.452;9.216;2022-10-16T01:53:29;467.17;;;175.33;;
8407;SDS011;4241;48.452;9.216;2022-10-16T01:55:57;464.07;;;171.07;;
8407;SDS011;4241;48.452;9.216;2022-10-16T01:58:27;466.00;;;173.20;;
8407;SDS011;4241;48.452;9.216;2022-10-16T02:00:59;465.27;;;171.93;;
8407;SDS011;4241;48.452;9.216;2022-10-16T02:03:27;462.97;;;168.53;;
8407;SDS011;4241;48.452;9.216;2022-10-16T02:05:55;462.27;;;169.93;;
8407;SDS011;4241;48.452;9.216;2022-10-16T02:08:24;465.17;;;172.97;;
8407;SDS011;4241;48.452;9.216;2022-10-16T02:10:55;465.10;;;172.93;;
8407;SDS011;4241;48.452;9.216;2022-10-16T02:13:23;466.27;;;173.77;;
8407;SDS011;4241;48.452;9.216;2022-10-16T02:15:55;464.73;;;172.83;;
8407;SDS011;4241;48.452;9.216;2022-10-16T02:18:22;468.07;;;175.20;;
8407;SDS011;4241;48.452;9.216;2022-10-16T02:20:53;465.87;;;173.97;;
8407;SDS011;4241;48.452;9.216;2022-10-16T02:23:27;467.57;;;173.07;;
8407;SDS011;4241;48.452;9.216;2022-10-16T02:26:01;463.67;;;172.03;;
8407;SDS011;4241;48.452;9.216;2022-10-16T02:28:33;466.17;;;175.00;;
8407;SDS011;4241;48.452;9.216;2022-10-16T02:31:06;465.50;;;174.10;;
8407;SDS011;4241;48.452;9.216;2022-10-16T02:33:36;466.73;;;173.97;;
8407;SDS011;4241;48.452;9.216;2022-10-16T02:36:05;463.63;;;171.17;;
8407;SDS011;4241;48.452;9.216;2022-10-16T02:38:32;465.90;;;172.73;;
8407;SDS011;4241;48.452;9.216;2022-10-16T02:41:00;462.50;;;166.90;;
8407;SDS011;4241;48.452;9.216;2022-10-16T02:43:27;464.40;;;173.37;;
8407;SDS011;4241;48.452;9.216;2022-10-16T02:45:55;465.13;;;173.43;;
8407;SDS011;4241;48.452;9.216;2022-10-16T02:48:22;464.73;;;172.80;;
8407;SDS011;4241;48.452;9.216;2022-10-16T02:50:49;462.97;;;171.17;;
8407;SDS011;4241;48.452;9.216;2022-10-16T02:53:16;465.00;;;173.27;;
8407;SDS011;4241;48.452;9.216;2022-10-16T02:55:43;466.60;;;174.67;;
8407;SDS011;4241;48.452;9.216;2022-10-16T02:58:10;465.67;;;173.63;;
8407;SDS011;4241;48.452;9.216;2022-10-16T03:00:36;467.77;;;175.50;;
8407;SDS011;4241;48.452;9.216;2022-10-16T03:03:04;466.27;;;175.23;;
8407;SDS011;4241;48.452;9.216;2022-10-16T03:05:31;467.23;;;176.43;;
8407;SDS011;4241;48.452;9.216;2022-10-16T03:07:58;466.33;;;175.70;;
8407;SDS011;4241;48.452;9.216;2022-10-16T03:10:25;467.77;;;177.93;;
8407;SDS011;4241;48.452;9.216;2022-10-16T03:12:52;467.90;;;178.40;;
8407;SDS011;4241;48.452;9.216;2022-10-16T03:15:19;465.67;;;176.97;;
8407;SDS011;4241;48.452;9.216;2022-10-16T03:17:46;467.53;;;178.17;;
8407;SDS011;4241;48.452;9.216;2022-10-16T03:20:14;468.73;;;180.10;;
8407;SDS011;4241;48.452;9.216;2022-10-16T03:22:42;468.30;;;179.87;;
8407;SDS011;4241;48.452;9.216;2022-10-16T03:25:08;465.60;;;176.40;;
8407;SDS011;4241;48.452;9.216;2022-10-16T03:27:35;467.90;;;180.10;;
8407;SDS011;4241;48.452;9.216;2022-10-16T03:30:02;468.43;;;176.53;;
8407;SDS011;4241;48.452;9.216;2022-10-16T03:32:29;473.70;;;185.07;;
8407;SDS011;4241;48.452;9.216;2022-10-16T03:34:56;468.63;;;179.70;;
8407;SDS011;4241;48.452;9.216;2022-10-16T03:37:24;465.80;;;175.50;;
8407;SDS011;4241;48.452;9.216;2022-10-16T03:39:51;465.87;;;175.77;;
8407;SDS011;4241;48.452;9.216;2022-10-16T03:42:18;471.70;;;183.13;;
8407;SDS011;4241;48.452;9.216;2022-10-16T03:44:45;469.17;;;179.33;;
8407;SDS011;4241;48.452;9.216;2022-10-16T03:47:11;465.93;;;176.53;;
8407;SDS011;4241;48.452;9.216;2022-10-16T03:49:38;467.30;;;178.43;;
8407;SDS011;4241;48.452;9.216;2022-10-16T03:52:05;471.63;;;181.40;;
8407;SDS011;4241;48.452;9.216;2022-10-16T03:54:33;465.63;;;175.20;;
8407;SDS011;4241;48.452;9.216;2022-10-16T03:57:00;466.03;;;175.57;;
8407;SDS011;4241;48.452;9.216;2022-10-16T03:59:27;466.10;;;176.30;;
8407;SDS011;4241;48.452;9.216;2022-10-16T04:01:54;467.10;;;177.70;;
8407;SDS011;4241;48.452;9.216;2022-10-16T04:04:20;465.97;;;177.97;;
8407;SDS011;4241;48.452;9.216;2022-10-16T04:06:47;467.90;;;179.63;;
8407;SDS011;4241;48.452;9.216;2022-10-16T04:09:14;468.00;;;180.43;;
8407;SDS011;4241;48.452;9.216;2022-10-16T04:11:42;467.33;;;179.97;;
8407;SDS011;4241;48.452;9.216;2022-10-16T04:14:09;470.83;;;181.93;;
8407;SDS011;4241;48.452;9.216;2022-10-16T04:16:36;470.77;;;184.87;;
8407;SDS011;4241;48.452;9.216;2022-10-16T04:19:02;469.27;;;181.10;;
8407;SDS011;4241;48.452;9.216;2022-10-16T04:21:29;467.50;;;181.57;;
8407;SDS011;4241;48.452;9.216;2022-10-16T04:23:56;470.30;;;182.90;;
8407;SDS011;4241;48.452;9.216;2022-10-16T04:26:23;468.43;;;179.90;;
8407;SDS011;4241;48.452;9.216;2022-10-16T04:28:51;468.10;;;181.30;;
8407;SDS011;4241;48.452;9.216;2022-10-16T04:31:18;467.10;;;180.90;;
8407;SDS011;4241;48.452;9.216;2022-10-16T04:33:45;468.23;;;181.87;;
8407;SDS011;4241;48.452;9.216;2022-10-16T04:36:13;469.73;;;184.43;;
8407;SDS011;4241;48.452;9.216;2022-10-16T04:38:39;468.47;;;183.17;;
8407;SDS011;4241;48.452;9.216;2022-10-16T04:41:07;471.67;;;185.47;;
8407;SDS011;4241;48.452;9.216;2022-10-16T04:43:34;470.67;;;184.83;;
8407;SDS011;4241;48.452;9.216;2022-10-16T04:46:02;468.53;;;183.23;;
8407;SDS011;4241;48.452;9.216;2022-10-16T04:48:29;466.67;;;183.23;;
8407;SDS011;4241;48.452;9.216;2022-10-16T04:50:59;474.43;;;191.33;;
8407;SDS011;4241;48.452;9.216;2022-10-16T04:53:26;469.83;;;184.00;;
8407;SDS011;4241;48.452;9.216;2022-10-16T04:55:53;467.43;;;182.43;;
8407;SDS011;4241;48.452;9.216;2022-10-16T04:58:21;471.07;;;187.63;;
8407;SDS011;4241;48.452;9.216;2022-10-16T05:00:47;468.23;;;182.97;;
8407;SDS011;4241;48.452;9.216;2022-10-16T05:03:15;475.13;;;190.03;;
8407;SDS011;4241;48.452;9.216;2022-10-16T05:05:42;469.23;;;182.83;;
8407;SDS011;4241;48.452;9.216;2022-10-16T05:08:10;470.90;;;185.40;;
8407;SDS011;4241;48.452;9.216;2022-10-16T05:10:37;469.70;;;185.90;;
8407;SDS011;4241;48.452;9.216;2022-10-16T05:13:03;470.67;;;185.73;;
8407;SDS011;4241;48.452;9.216;2022-10-16T05:15:30;470.03;;;185.67;;
8407;SDS011;4241;48.452;9.216;2022-10-16T05:17:57;470.23;;;185.50;;
8407;SDS011;4241;48.452;9.216;2022-10-16T05:20:25;480.53;;;196.77;;
8407;SDS011;4241;48.452;9.216;2022-10-16T05:22:52;469.57;;;185.33;;
8407;SDS011;4241;48.452;9.216;2022-10-16T05:25:19;469.63;;;186.07;;
8407;SDS011;4241;48.452;9.216;2022-10-16T05:27:47;467.33;;;182.73;;
8407;SDS011;4241;48.452;9.216;2022-10-16T05:30:14;467.50;;;184.07;;
8407;SDS011;4241;48.452;9.216;2022-10-16T05:32:41;470.57;;;185.27;;
8407;SDS011;4241;48.452;9.216;2022-10-16T05:35:11;472.80;;;187.23;;
8407;SDS011;4241;48.452;9.216;2022-10-16T05:37:40;470.30;;;185.43;;
8407;SDS011;4241;48.452;9.216;2022-10-16T05:40:07;468.57;;;183.93;;
8407;SDS011;4241;48.452;9.216;2022-10-16T05:42:34;473.27;;;189.30;;
8407;SDS011;4241;48.452;9.216;2022-10-16T05:45:02;468.90;;;185.20;;
8407;SDS011;4241;48.452;9.216;2022-10-16T05:47:30;467.83;;;181.83;;
8407;SDS011;4241;48.452;9.216;2022-10-16T05:49:56;469.30;;;184.23;;
8407;SDS011;4241;48.452;9.216;2022-10-16T05:52:23;474.87;;;191.80;;
8407;SDS011;4241;48.452;9.216;2022-10-16T05:54:51;469.73;;;185.00;;
8407;SDS011;4241;48.452;9.216;2022-10-16T05:57:18;469.80;;;184.80;;
8407;SDS011;4241;48.452;9.216;2022-10-16T05:59:45;468.03;;;184.40;;
8407;SDS011;4241;48.452;9.216;2022-10-16T06:02:12;471.20;;;187.33;;
8407;SDS011;4241;48.452;9.216;2022-10-16T06:04:40;467.50;;;183.57;;
8407;SDS011;4241;48.452;9.216;2022-10-16T06:07:07;473.83;;;189.73;;
8407;SDS011;4241;48.452;9.216;2022-10-16T06:09:33;469.93;;;185.00;;
8407;SDS011;4241;48.452;9.216;2022-10-16T06:12:02;468.77;;;183.57;;
8407;SDS011;4241;48.452;9.216;2022-10-16T06:14:28;467.30;;;181.33;;
8407;SDS011;4241;48.452;9.216;2022-10-16T06:16:55;469.43;;;184.47;;
8407;SDS011;4241;48.452;9.216;2022-10-16T06:19:22;468.97;;;183.33;;
8407;SDS011;4241;48.452;9.216;2022-10-16T06:21:49;466.83;;;182.70;;
8407;SDS011;4241;48.452;9.216;2022-10-16T06:24:16;468.53;;;183.23;;
8407;SDS011;4241;48.452;9.216;2022-10-16T06:26:43;469.97;;;183.77;;
8407;SDS011;4241;48.452;9.216;2022-10-16T06:29:11;466.80;;;180.17;;
8407;SDS011;4241;48.452;9.216;2022-10-16T06:31:37;468.30;;;181.73;;
8407;SDS011;4241;48.452;9.216;2022-10-16T06:34:04;466.40;;;178.70;;
8407;SDS011;4241;48.452;9.216;2022-10-16T06:36:34;463.50;;;174.93;;
8407;SDS011;4241;48.452;9.216;2022-10-16T06:39:01;468.10;;;184.20;;
8407;SDS011;4241;48.452;9.216;2022-10-16T06:41:28;468.67;;;181.83;;
8407;SDS011;4241;48.452;9.216;2022-10-16T06:43:55;467.27;;;180.33;;
8407;SDS011;4241;48.452;9.216;2022-10-16T06:46:23;469.33;;;181.93;;
8407;SDS011;4241;48.452;9.216;2022-10-16T06:48:51;468.63;;;182.03;;
8407;SDS011;4241;48.452;9.216;2022-10-16T06:51:19;467.97;;;181.33;;
8407;SDS011;4241;48.452;9.216;2022-10-16T06:53:48;468.40;;;182.30;;
8407;SDS011;4241;48.452;9.216;2022-10-16T06:56:17;469.63;;;184.07;;
8407;SDS011;4241;48.452;9.216;2022-10-16T06:58:45;470.80;;;185.30;;
8407;SDS011;4241;48.452;9.216;2022-10-16T07:01:13;469.80;;;184.67;;
8407;SDS011;4241;48.452;9.216;2022-10-16T07:03:44;465.33;;;182.77;;
8407;SDS011;4241;48.452;9.216;2022-10-16T07:06:12;471.03;;;186.40;;
8407;SDS011;4241;48.452;9.216;2022-10-16T07:08:40;471.97;;;188.23;;
8407;SDS011;4241;48.452;9.216;2022-10-16T07:11:09;470.73;;;185.83;;
8407;SDS011;4241;48.452;9.216;2022-10-16T07:13:37;470.83;;;186.70;;
8407;SDS011;4241;48.452;9.216;2022-10-16T07:16:06;471.37;;;188.20;;
8407;SDS011;4241;48.452;9.216;2022-10-16T07:18:34;473.73;;;188.70;;
8407;SDS011;4241;48.452;9.216;2022-10-16T07:21:06;471.57;;;188.70;;
8407;SDS011;4241;48.452;9.216;2022-10-16T07:23:34;471.43;;;186.73;;
8407;SDS011;4241;48.452;9.216;2022-10-16T07:26:01;470.60;;;189.23;;
8407;SDS011;4241;48.452;9.216;2022-10-16T07:28:28;469.37;;;184.77;;
8407;SDS011;4241;48.452;9.216;2022-10-16T07:30:55;470.40;;;187.70;;
8407;SDS011;4241;48.452;9.216;2022-10-16T07:33:22;472.03;;;190.23;;
8407;SDS011;4241;48.452;9.216;2022-10-16T07:35:49;471.23;;;188.83;;
8407;SDS011;4241;48.452;9.216;2022-10-16T07:38:18;472.67;;;192.30;;
8407;SDS011;4241;48.452;9.216;2022-10-16T07:40:45;470.17;;;189.43;;
8407;SDS011;4241;48.452;9.216;2022-10-16T07:43:13;471.53;;;191.63;;
8407;SDS011;4241;48.452;9.216;2022-10-16T07:45:46;471.07;;;191.03;;
8407;SDS011;4241;48.452;9.216;2022-10-16T07:48:13;472.13;;;193.83;;
8407;SDS011;4241;48.452;9.216;2022-10-16T07:50:40;495.03;;;212.57;;
8407;SDS011;4241;48.452;9.216;2022-10-16T07:53:08;472.53;;;193.47;;
8407;SDS011;4241;48.452;9.216;2022-10-16T07:55:36;473.37;;;193.30;;
8407;SDS011;4241;48.452;9.216;2022-10-16T07:58:03;472.00;;;193.67;;
8407;SDS011;4241;48.452;9.216;2022-10-16T08:00:31;474.63;;;198.40;;
8407;SDS011;4241;48.452;9.216;2022-10-16T08:02:58;471.87;;;195.93;;
8407;SDS011;4241;48.452;9.216;2022-10-16T08:05:26;484.67;;;208.87;;
8407;SDS011;4241;48.452;9.216;2022-10-16T08:07:53;474.33;;;200.87;;
8407;SDS011;4241;48.452;9.216;2022-10-16T08:10:21;478.07;;;203.03;;
8407;SDS011;4241;48.452;9.216;2022-10-16T08:12:50;474.17;;;199.63;;
8407;SDS011;4241;48.452;9.216;2022-10-16T08:15:17;479.57;;;206.63;;
8407;SDS011;4241;48.452;9.216;2022-10-16T08:17:45;474.40;;;201.33;;
8407;SDS011;4241;48.452;9.216;2022-10-16T08:20:20;476.20;;;203.97;;
8407;SDS011;4241;48.452;9.216;2022-10-16T08:22:47;476.87;;;205.27;;
8407;SDS011;4241;48.452;9.216;2022-10-16T08:25:14;479.83;;;207.57;;
8407;SDS011;4241;48.452;9.216;2022-10-16T08:27:41;476.20;;;208.20;;
8407;SDS011;4241;48.452;9.216;2022-10-16T08:30:11;478.23;;;208.73;;
8407;SDS011;4241;48.452;9.216;2022-10-16T08:32:38;479.23;;;210.57;;
8407;SDS011;4241;48.452;9.216;2022-10-16T08:35:06;479.70;;;214.43;;
8407;SDS011;4241;48.452;9.216;2022-10-16T08:37:34;478.80;;;211.53;;
8407;SDS011;4241;48.452;9.216;2022-10-16T08:40:01;481.83;;;216.57;;
8407;SDS011;4241;48.452;9.216;2022-10-16T08:42:31;485.47;;;223.83;;
8407;SDS011;4241;48.452;9.216;2022-10-16T08:45:17;481.03;;;216.37;;
8407;SDS011;4241;48.452;9.216;2022-10-16T08:47:55;479.43;;;219.13;;
8407;SDS011;4241;48.452;9.216;2022-10-16T08:50:29;484.93;;;223.33;;
8407;SDS011;4241;48.452;9.216;2022-10-16T08:52:57;481.23;;;221.10;;
8407;SDS011;4241;48.452;9.216;2022-10-16T08:55:28;486.43;;;228.47;;
8407;SDS011;4241;48.452;9.216;2022-10-16T08:57:58;482.03;;;224.63;;
8407;SDS011;4241;48.452;9.216;2022-10-16T09:00:27;486.97;;;229.67;;
8407;SDS011;4241;48.452;9.216;2022-10-16T09:02:57;485.50;;;232.23;;
8407;SDS011;4241;48.452;9.216;2022-10-16T09:08:22;484.10;;;230.93;;
8407;SDS011;4241;48.452;9.216;2022-10-16T09:10:58;482.83;;;231.80;;
8407;SDS011;4241;48.452;9.216;2022-10-16T09:13:32;489.23;;;238.80;;
8407;SDS011;4241;48.452;9.216;2022-10-16T09:16:12;484.53;;;235.87;;
8407;SDS011;4241;48.452;9.216;2022-10-16T09:18:47;488.67;;;242.73;;
8407;SDS011;4241;48.452;9.216;2022-10-16T09:21:18;488.23;;;240.87;;
8407;SDS011;4241;48.452;9.216;2022-10-16T09:23:48;488.73;;;244.43;;
8407;SDS011;4241;48.452;9.216;2022-10-16T09:26:16;489.13;;;244.53;;
8407;SDS011;4241;48.452;9.216;2022-10-16T09:28:44;487.83;;;245.13;;
8407;SDS011;4241;48.452;9.216;2022-10-16T09:31:19;488.67;;;246.00;;
8407;SDS011;4241;48.452;9.216;2022-10-16T09:33:48;486.60;;;244.97;;
8407;SDS011;4241;48.452;9.216;2022-10-16T09:36:18;490.80;;;250.30;;
8407;SDS011;4241;48.452;9.216;2022-10-16T09:38:46;494.97;;;249.53;;
8407;SDS011;4241;48.452;9.216;2022-10-16T09:41:15;487.57;;;245.60;;
8407;SDS011;4241;48.452;9.216;2022-10-16T09:43:46;488.73;;;245.37;;
8407;SDS011;4241;48.452;9.216;2022-10-16T09:46:24;487.33;;;244.17;;
8407;SDS011;4241;48.452;9.216;2022-10-16T09:48:53;490.67;;;248.23;;
8407;SDS011;4241;48.452;9.216;2022-10-16T09:51:25;489.27;;;245.77;;
8407;SDS011;4241;48.452;9.216;2022-10-16T09:53:55;489.57;;;247.67;;
8407;SDS011;4241;48.452;9.216;2022-10-16T09:56:24;490.83;;;252.70;;
8407;SDS011;4241;48.452;9.216;2022-10-16T09:58:53;490.37;;;249.60;;
8407;SDS011;4241;48.452;9.216;2022-10-16T10:01:24;491.53;;;251.93;;
8407;SDS011;4241;48.452;9.216;2022-10-16T10:03:55;494.87;;;254.57;;
8407;SDS011;4241;48.452;9.216;2022-10-16T10:06:26;490.07;;;253.57;;
8407;SDS011;4241;48.452;9.216;2022-10-16T10:08:55;488.90;;;252.63;;
8407;SDS011;4241;48.452;9.216;2022-10-16T10:14:21;489.30;;;250.07;;
8407;SDS011;4241;48.452;9.216;2022-10-16T10:16:52;490.97;;;252.87;;
8407;SDS011;4241;48.452;9.216;2022-10-16T10:19:27;492.47;;;254.53;;
8407;SDS011;4241;48.452;9.216;2022-10-16T10:21:54;490.50;;;250.60;;
8407;SDS011;4241;48.452;9.216;2022-10-16T10:24:21;490.93;;;254.60;;
8407;SDS011;4241;48.452;9.216;2022-10-16T10:26:49;494.30;;;256.13;;
8407;SDS011;4241;48.452;9.216;2022-10-16T10:29:25;488.77;;;249.20;;
8407;SDS011;4241;48.452;9.216;2022-10-16T10:32:05;488.00;;;248.83;;
8407;SDS011;4241;48.452;9.216;2022-10-16T10:34:47;492.00;;;253.13;;
8407;SDS011;4241;48.452;9.216;2022-10-16T10:37:29;491.33;;;252.53;;
8407;SDS011;4241;48.452;9.216;2022-10-16T10:40:07;492.10;;;257.47;;
8407;SDS011;4241;48.452;9.216;2022-10-16T10:42:44;494.83;;;265.13;;
8407;SDS011;4241;48.452;9.216;2022-10-16T10:45:18;498.83;;;272.17;;
8407;SDS011;4241;48.452;9.216;2022-10-16T10:50:45;498.67;;;280.43;;
8407;SDS011;4241;48.452;9.216;2022-10-16T10:53:18;498.77;;;284.47;;
8407;SDS011;4241;48.452;9.216;2022-10-16T10:55:54;497.60;;;286.97;;
8407;SDS011;4241;48.452;9.216;2022-10-16T10:58:48;500.90;;;293.53;;
8407;SDS011;4241;48.452;9.216;2022-10-16T11:01:24;500.67;;;291.60;;
8407;SDS011;4241;48.452;9.216;2022-10-16T11:04:01;499.10;;;293.37;;
8407;SDS011;4241;48.452;9.216;2022-10-16T11:06:43;503.17;;;299.40;;
8407;SDS011;4241;48.452;9.216;2022-10-16T11:09:15;502.13;;;303.70;;
8407;SDS011;4241;48.452;9.216;2022-10-16T11:11:45;498.50;;;301.43;;
8407;SDS011;4241;48.452;9.216;2022-10-16T11:14:17;505.03;;;308.33;;
8407;SDS011;4241;48.452;9.216;2022-10-16T11:16:48;503.07;;;306.03;;
8407;SDS011;4241;48.452;9.216;2022-10-16T11:19:22;504.37;;;311.47;;
8407;SDS011;4241;48.452;9.216;2022-10-16T11:22:01;503.17;;;308.40;;
8407;SDS011;4241;48.452;9.216;2022-10-16T11:24:35;504.50;;;312.23;;
8407;SDS011;4241;48.452;9.216;2022-10-16T11:27:08;503.53;;;312.37;;
8407;SDS011;4241;48.452;9.216;2022-10-16T11:29:42;504.70;;;313.80;;
8407;SDS011;4241;48.452;9.216;2022-10-16T11:32:15;506.60;;;316.67;;
8407;SDS011;4241;48.452;9.216;2022-10-16T11:34:49;507.57;;;317.70;;
8407;SDS011;4241;48.452;9.216;2022-10-16T11:37:18;504.17;;;309.73;;
8407;SDS011;4241;48.452;9.216;2022-10-16T11:39:49;503.97;;;309.67;;
8407;SDS011;4241;48.452;9.216;2022-10-16T11:42:18;506.50;;;311.17;;
8407;SDS011;4241;48.452;9.216;2022-10-16T11:44:51;503.57;;;307.33;;
8407;SDS011;4241;48.452;9.216;2022-10-16T11:47:27;500.57;;;299.40;;
8407;SDS011;4241;48.452;9.216;2022-10-16T11:50:01;502.97;;;295.43;;
8407;SDS011;4241;48.452;9.216;2022-10-16T11:52:33;500.17;;;294.67;;
8407;SDS011;4241;48.452;9.216;2022-10-16T11:55:09;498.03;;;292.30;;
8407;SDS011;4241;48.452;9.216;2022-10-16T11:57:43;499.90;;;292.73;;
8407;SDS011;4241;48.452;9.216;2022-10-16T12:00:15;499.63;;;290.47;;
8407;SDS011;4241;48.452;9.216;2022-10-16T12:02:54;497.73;;;287.90;;
8407;SDS011;4241;48.452;9.216;2022-10-16T12:05:30;499.73;;;289.67;;
8407;SDS011;4241;48.452;9.216;2022-10-16T12:08:07;499.10;;;289.77;;
8407;SDS011;4241;48.452;9.216;2022-10-16T12:10:37;499.07;;;289.00;;
8407;SDS011;4241;48.452;9.216;2022-10-16T12:13:25;500.43;;;294.30;;
8407;SDS011;4241;48.452;9.216;2022-10-16T12:16:06;511.37;;;297.70;;
8407;SDS011;4241;48.452;9.216;2022-10-16T12:18:46;496.23;;;286.13;;
8407;SDS011;4241;48.452;9.216;2022-10-16T12:21:15;497.40;;;285.53;;
8407;SDS011;4241;48.452;9.216;2022-10-16T12:23:47;499.73;;;286.10;;
8407;SDS011;4241;48.452;9.216;2022-10-16T12:26:23;498.37;;;284.13;;
8407;SDS011;4241;48.452;9.216;2022-10-16T12:28:51;504.10;;;287.43;;
8407;SDS011;4241;48.452;9.216;2022-10-16T12:31:17;499.60;;;282.50;;
8407;SDS011;4241;48.452;9.216;2022-10-16T12:33:52;498.63;;;283.00;;
8407;SDS011;4241;48.452;9.216;2022-10-16T12:36:28;497.10;;;279.20;;
8407;SDS011;4241;48.452;9.216;2022-10-16T12:38:58;497.00;;;281.40;;
8407;SDS011;4241;48.452;9.216;2022-10-16T12:41:26;497.73;;;280.40;;
8407;SDS011;4241;48.452;9.216;2022-10-16T12:43:54;500.83;;;284.20;;
8407;SDS011;4241;48.452;9.216;2022-10-16T12:46:23;496.90;;;281.47;;
8407;SDS011;4241;48.452;9.216;2022-10-16T12:49:21;497.83;;;282.57;;
8407;SDS011;4241;48.452;9.216;2022-10-16T12:51:57;498.13;;;283.03;;
8407;SDS011;4241;48.452;9.216;2022-10-16T12:54:25;498.47;;;281.10;;
8407;SDS011;4241;48.452;9.216;2022-10-16T12:57:00;497.57;;;282.30;;
8407;SDS011;4241;48.452;9.216;2022-10-16T12:59:38;497.37;;;280.57;;
8407;SDS011;4241;48.452;9.216;2022-10-16T13:02:17;497.07;;;276.27;;
8407;SDS011;4241;48.452;9.216;2022-10-16T13:05:14;495.57;;;274.17;;
8407;SDS011;4241;48.452;9.216;2022-10-16T13:07:53;497.30;;;279.70;;
8407;SDS011;4241;48.452;9.216;2022-10-16T13:10:30;497.03;;;277.20;;
8407;SDS011;4241;48.452;9.216;2022-10-16T13:13:09;498.87;;;281.63;;
8407;SDS011;4241;48.452;9.216;2022-10-16T13:16:01;496.97;;;277.27;;
8407;SDS011;4241;48.452;9.216;2022-10-16T13:18:42;497.73;;;277.40;;
8407;SDS011;4241;48.452;9.216;2022-10-16T13:21:21;497.20;;;279.07;;
8407;SDS011;4241;48.452;9.216;2022-10-16T13:24:02;497.60;;;276.70;;
8407;SDS011;4241;48.452;9.216;2022-10-16T13:26:40;496.10;;;275.53;;
8407;SDS011;4241;48.452;9.216;2022-10-16T13:29:12;498.47;;;279.03;;
8407;SDS011;4241;48.452;9.216;2022-10-16T13:31:39;496.70;;;277.20;;
8407;SDS011;4241;48.452;9.216;2022-10-16T13:34:10;494.13;;;273.20;;
8407;SDS011;4241;48.452;9.216;2022-10-16T13:36:43;495.00;;;273.83;;
8407;SDS011;4241;48.452;9.216;2022-10-16T13:39:13;495.30;;;275.40;;
8407;SDS011;4241;48.452;9.216;2022-10-16T13:41:42;497.57;;;278.70;;
8407;SDS011;4241;48.452;9.216;2022-10-16T13:44:12;494.13;;;275.07;;
8407;SDS011;4241;48.452;9.216;2022-10-16T13:46:41;494.93;;;272.93;;
8407;SDS011;4241;48.452;9.216;2022-10-16T13:49:11;494.87;;;278.17;;
8407;SDS011;4241;48.452;9.216;2022-10-16T13:51:39;492.03;;;270.87;;
8407;SDS011;4241;48.452;9.216;2022-10-16T13:54:07;495.97;;;277.73;;
8407;SDS011;4241;48.452;9.216;2022-10-16T13:56:38;495.70;;;275.33;;
8407;SDS011;4241;48.452;9.216;2022-10-16T13:59:06;501.10;;;275.97;;
8407;SDS011;4241;48.452;9.216;2022-10-16T14:01:50;493.07;;;274.57;;
8407;SDS011;4241;48.452;9.216;2022-10-16T14:04:20;497.43;;;278.40;;
8407;SDS011;4241;48.452;9.216;2022-10-16T14:06:48;496.10;;;277.73;;
8407;SDS011;4241;48.452;9.216;2022-10-16T14:09:20;494.67;;;274.97;;
8407;SDS011;4241;48.452;9.216;2022-10-16T14:11:52;494.20;;;272.03;;
8407;SDS011;4241;48.452;9.216;2022-10-16T14:14:20;499.73;;;281.77;;
8407;SDS011;4241;48.452;9.216;2022-10-16T14:16:48;496.60;;;278.17;;
8407;SDS011;4241;48.452;9.216;2022-10-16T14:19:18;500.67;;;281.60;;
8407;SDS011;4241;48.452;9.216;2022-10-16T14:21:47;493.43;;;278.03;;
8407;SDS011;4241;48.452;9.216;2022-10-16T14:24:22;496.97;;;277.80;;
8407;SDS011;4241;48.452;9.216;2022-10-16T14:26:54;493.60;;;274.73;;
8407;SDS011;4241;48.452;9.216;2022-10-16T14:29:21;496.07;;;275.93;;
8407;SDS011;4241;48.452;9.216;2022-10-16T14:31:56;492.30;;;273.83;;
8407;SDS011;4241;48.452;9.216;2022-10-16T14:34:25;493.13;;;271.80;;
8407;SDS011;4241;48.452;9.216;2022-10-16T14:36:55;495.13;;;273.13;;
8407;SDS011;4241;48.452;9.216;2022-10-16T14:39:22;495.03;;;276.80;;
8407;SDS011;4241;48.452;9.216;2022-10-16T14:41:51;495.83;;;276.40;;
8407;SDS011;4241;48.452;9.216;2022-10-16T14:44:22;494.33;;;274.43;;
8407;SDS011;4241;48.452;9.216;2022-10-16T14:46:53;494.23;;;276.10;;